Airfield :







YOU CAN JOIN US ON...

 
LOGIN :

Register | Disclaimer

   EN    FR    IT 

 









Legend :    VFR   Marginal VFR   IFR   Intensive IFR   Very Intensive IFR
Visi :
Ceiling :
>= 8 km
>= 3000ft
5 to 8 km
1000 to 3000 ft
1500m to 5 km
500 to 1000 ft
800 to 1500m
200 to 500 ft
< 800m
< 200 ft
Symbols :   Thunderstorms  Fog  Heavy snow  Heavy precipitations  Wind > 20 kt






- Airport Elevation : 342 ft


KCON - Concord Municipal

CURRENT METAR :
  • 260058Z AUTO 06014G19KT 5SM RA BR BKN010 OVC014 03/02 A2986 RMK AO2 PRESFR P0001 T00330022

EXPIRED METARs :
  • 260051Z AUTO 07013G21KT 6SM -RA BR BKN009 OVC019 04/02 A2989 RMK AO2 CIG 008V013 PRESFR SLP124 P0005 T00390022
  • 252351Z AUTO 07011G19KT 6SM -RA BR OVC007 03/02 A2994 RMK AO2 RAB09 CIG 005V010 SLP143 P0001 60001 T00330022 10033 20022 58038
  • 252251Z AUTO 08013G22KT 6SM BR OVC005 03/02 A2999 RMK AO2 PRESFR SLP157 T00280017

TAF KCON
Valid from the 26 at 00:00 until the 27 at 00:00 UTC


252346Z 2600/2624 08010G17KT 4SM -RA OVC005
FM260200 08012G20KT 1SM RA OVC003 WS020/13045KT
FM260500 VRB05KT 4SM -RA BR BKN003 OVC006 WS020/18040KT
FM260700 VRB03KT P6SM BKN003 OVC006
FM261400 27008G15KT P6SM FEW100



MET'MAP, your aeronautical weather chart ! - Copyright ORBIFLY December 2007 - Disclaimer

ORBIFLY MET'MAP TEAM :

Programming & Development : Alexandra Zaïnal
Concept & original design : Baudouin d'Aumeries
Assistance for programming : Marc-Olivier Méhu
Technical & hardware support : Manuel Goepfert

Contact : metmap@orbifly.com




SOURCES & CREDITS :

   NOAA